Vigilance météorologique Corrèze (19) : neige_verglas.gif  Neige-Verglas de niveau orange   Publié par Météo-France le 29 novembre 2021 à 06h00 (heure locale), valable jusqu'au 30 novembre 2021 à 06h00 (heure locale).  Pour de plus amples informations veuillez consulter le site  meteofrance      Source : meteofrance.fr.

METAR Reports LIMOGES - BRIVE - BERGERAC - ANGOULEME - CLERMOND-FERRAND - AURILLAC

 

LFBL - Aeroport de Limoges-Bellegarde
Distance from station: NE 45km
Mise à jour: 29/11/2021 07:30
Clair
Clair
 Wind from varies
Vent: varies 6 km/h
Température: -2°C
Point de rosée: -4°C
Humidité: 86%
Baromètre: 1011 hPa
Résumé: Clair
Visibility: greater than 10 km
2021/11/29 06:30 LFBL 290630Z AUTO VRB03KT CAVOK M02/M04 Q1011 TEMPO 2000 -SN OVC003
LFSL - Aeroport de Brive-Vallee de la Dordogne
Distance from station: S 40km
Mise à jour: 29/11/2021 07:30
Clair
Clair
 Wind from ONO
Vent: ONO 6 km/h
Température: -1°C
Point de rosée: -2°C
Humidité: 93%
Baromètre: 1012 hPa
Résumé: Clair
Visibility: greater than 10 km
2021/11/29 06:30 LFSL 290630Z AUTO 29003KT CAVOK M01/M02 Q1012 BECMG BKN007 BKN025
 
LFBE - Aeroport de Bergerac-Dordogne-Perigord
Distance from station: SO 150km
Mise à jour: 29/11/2021 07:30
Clair
Clair
 Wind from E
Vent: E 4 km/h
Température: -1°C
Point de rosée: -2°C
Humidité: 93%
Baromètre: 1014 hPa
Résumé: Clair
Visibility: greater than 10 km
2021/11/29 06:30 LFBE 290630Z AUTO 09002KT CAVOK M01/M02 Q1014 TEMPO 2000 -RASN OVC010
LFBU - Aeroport international Angouleme-Cognac
Distance from station: SSO 120km
Mise à jour: 29/11/2021 07:30
Light snow, Pluie, Couvert
Light snow, Pluie, Couvert
 Wind from SE
Vent: SE 4 km/h
Température: 0°C
Point de rosée: -1°C
Humidité: 93%
Baromètre: 1013 hPa
Résumé: Light snow, Pluie
Clouds: Couvert
Visibility: 7 km
Cloud details: Nuageux 427 m
Nuageux 610 m
Couvert 1036 m
2021/11/29 06:30 LFBU 290630Z AUTO 13002KT 7000 -SNRA BKN014 BKN020 OVC034 00/M01 Q1013 TEMPO 2000 -RASN
 
LFLC - Aeroport de Clermont-Ferrand Auvergne
Distance from station: E 200km
Mise à jour: 29/11/2021 07:30
Couvert
Couvert
 Wind from NO
Vent: NO 6 km/h
Température: 1°C
Point de rosée: -3°C
Humidité: 75%
Baromètre: 1010 hPa
Clouds: Couvert
Visibility: 10 km
Cloud details: Partiellement nuageux 701 m
Nuageux 853 m
Couvert 1097 m
2021/11/29 06:30 LFLC 290630Z AUTO 32003KT 270V360 9999 SCT023 BKN028 OVC036 01/M03 Q1010 NOSIG
LFLW - Aeroport Aurillac
Distance from station: SE 120km
Mise à jour: 29/11/2021 07:00
Couvert
Couvert
 Wind from ONO
Vent: ONO 11 km/h
Température: -3°C
Wind Chill: -7°C
Point de rosée: -4°C
Humidité: 93%
Baromètre: 1010 hPa
Clouds: Couvert
Visibility: 10 km
Cloud details: Couvert 610 m
2021/11/29 06:00 LFLW 290600Z AUTO 29006KT 260V320 9999 OVC020 M03/M04 Q1010 TEMPO BKN005